Delta, CO

5:07 PM MDT on May 26, 2017 (GMT -0600)
Delta

Weather History for KAJZ - July, 2013

Change the Weather History Date:

Saturday, July 27, 2013

  Actual Average (KMTJ) Record (KMTJ)
Temperature  
Mean Temperature 78 °F -  
Max Temperature 93 °F 86 °F 95 °F (2016)
Min Temperature 64 °F 56 °F 53 °F (2004)
Cooling Degree Days 14    
Growing Degree Days 28 (Base 50)    
Moisture  
Dew Point 46 °F    
Average Humidity 37    
Maximum Humidity 90    
Minimum Humidity 19    
Precipitation  
Precipitation 0.09 in - - ()
Sea Level Pressure  
Sea Level Pressure 30.13 in    
Wind  
Wind Speed 6 mph (NE)    
Max Wind Speed 17 mph    
Max Gust Speed 28 mph    
Visibility 8 miles    
Events Rain , Thunderstorm    
Averages and records for this station are not official NWS values.
T = Trace of Precipitation, MM = Missing Value Source: NWS Daily Summary

Daily Weather History Graph

Daily Weather History Graph

Search for Another Location

Airport or City:

Trip Planner

Search our weather history database for the weather conditions in past years. The results will help you decide how hot, cold, wet, or windy it might be!

Date:

Astronomy

Jul. 27, 2013 Rise Set
Actual Time 6:09 AM MDT 8:27 PM MDT
Civil Twilight 5:39 AM MDT 8:57 PM MDT
Nautical Twilight 5:02 AM MDT 9:34 PM MDT
Astronomical Twilight 4:21 AM MDT 10:14 PM MDT
Moon 11:21 PM MDT (7/27) 11:48 AM MDT (7/27)
Length of Visible Light 15h 18m
Length of Day
14h 18m
Waning Gibbous, 70% of the Moon is Illuminated
Jul 27
Waning Gibbous
Jul 29
Last Quarter
Aug 6
New
Aug 14
First Quarter
Aug 20
Full

Hourly Weather History & Observations

Time (MDT) Temp. Dew Point Humidity Pressure Visibility Wind Dir Wind Speed Gust Speed Precip Events Conditions
12:15 AM 73.4 °F 38.3 °F 28% 30.15 in 10.0 mi ENE 6.9 mph - N/A   Clear
12:35 AM 73.2 °F 37.8 °F 28% 30.17 in 10.0 mi ESE 5.8 mph - N/A   Clear
12:55 AM 71.8 °F 40.8 °F 33% 30.16 in 10.0 mi NNE 3.5 mph - N/A   Clear
1:15 AM 72.5 °F 40.3 °F 31% 30.17 in 10.0 mi NNE 5.8 mph - N/A   Clear
1:35 AM 71.4 °F 39.7 °F 32% 30.17 in 7.0 mi NE 5.8 mph - N/A   Clear
1:55 AM 70.7 °F 39.2 °F 32% 30.18 in 7.0 mi NNE 4.6 mph - N/A   Clear
2:15 AM 70.3 °F 41.2 °F 35% 30.18 in 10.0 mi NNE 6.9 mph - N/A   Clear
2:35 AM 70.3 °F 40.3 °F 34% 30.18 in 7.0 mi East 5.8 mph - N/A   Clear
2:55 AM 70.7 °F 38.7 °F 31% 30.18 in 10.0 mi NNE 5.8 mph - N/A   Clear
3:15 AM 70.5 °F 37.0 °F 29% 30.18 in 10.0 mi NE 5.8 mph - N/A   Clear
3:35 AM 69.1 °F 37.0 °F 31% 30.18 in 10.0 mi East 6.9 mph - N/A   Clear
3:55 AM 69.8 °F 37.8 °F 31% 30.18 in 10.0 mi ENE 6.9 mph - N/A   Clear
4:15 AM 70.0 °F 37.9 °F 31% 30.19 in 10.0 mi ENE 6.9 mph - N/A   Clear
4:35 AM 69.4 °F 38.8 °F 33% 30.19 in 7.0 mi NNE 4.6 mph - N/A   Clear
4:55 AM 69.1 °F 39.2 °F 34% 30.20 in 7.0 mi Calm Calm - N/A   Clear
5:15 AM 68.5 °F 39.7 °F 35% 30.20 in 10.0 mi Calm Calm - N/A   Clear
5:35 AM 67.6 °F 40.1 °F 37% 30.20 in 7.0 mi East 3.5 mph - N/A   Clear
5:55 AM 66.0 °F 42.3 °F 42% 30.21 in 5.0 mi Calm Calm - N/A   Haze
6:15 AM 64.4 °F 44.8 °F 49% 30.21 in 7.0 mi Calm Calm - N/A   Clear
6:35 AM 64.6 °F 44.2 °F 48% 30.22 in 5.0 mi ENE 4.6 mph - N/A   Haze
6:55 AM 65.8 °F 42.6 °F 43% 30.22 in 5.0 mi ENE 4.6 mph - N/A   Haze
7:15 AM 68.9 °F 42.4 °F 38% 30.22 in 7.0 mi NE 3.5 mph - N/A   Clear
7:35 AM 69.1 °F 42.8 °F 39% 30.23 in 5.0 mi Calm Calm - N/A   Haze
7:55 AM 69.3 °F 43.5 °F 39% 30.23 in 7.0 mi Calm Calm - N/A   Clear
8:15 AM 72.0 °F 42.3 °F 34% 30.23 in 7.0 mi ENE 3.5 mph - N/A   Clear
8:35 AM 74.1 °F 43.0 °F 33% 30.23 in 7.0 mi East 5.8 mph - N/A   Clear
8:55 AM 76.1 °F 43.2 °F 31% 30.22 in 5.0 mi East 4.6 mph - N/A   Haze
9:15 AM 77.0 °F 44.2 °F 31% 30.22 in 7.0 mi East 3.5 mph - N/A   Clear
9:35 AM 78.8 °F 44.8 °F 30% 30.21 in 7.0 mi Calm Calm - N/A   Clear
9:55 AM 80.8 °F 44.4 °F 28% 30.21 in 7.0 mi Calm Calm - N/A   Clear
10:15 AM 82.8 °F 44.2 °F 26% 30.19 in 7.0 mi Calm Calm - N/A   Clear
10:35 AM 84.6 °F 44.6 °F 25% 30.19 in 7.0 mi ENE 3.5 mph - N/A   Clear
10:55 AM 85.3 °F 44.2 °F 24% 30.18 in 7.0 mi ENE 4.6 mph - N/A   Clear
11:15 AM 85.1 °F 44.8 °F 24% 30.17 in 10.0 mi Calm Calm - N/A   Clear
11:35 AM 86.9 °F 44.6 °F 23% 30.16 in 7.0 mi NE 4.6 mph - N/A   Clear
11:55 AM 87.8 °F 44.8 °F 22% 30.15 in 10.0 mi NNW 4.6 mph - N/A   Clear
12:15 PM 87.3 °F 44.6 °F 23% 30.14 in 10.0 mi Calm Calm - N/A   Clear
12:35 PM 89.2 °F 44.6 °F 21% 30.12 in 7.0 mi North 4.6 mph - N/A   Clear
12:55 PM 90.5 °F 43.7 °F 20% 30.11 in 10.0 mi North 4.6 mph - N/A   Clear
1:15 PM 91.2 °F 43.9 °F 19% 30.09 in 10.0 mi Calm Calm - N/A   Clear
1:35 PM 91.9 °F 45.0 °F 20% 30.08 in 10.0 mi West 5.8 mph - N/A   Clear
1:55 PM 91.9 °F 44.8 °F 20% 30.07 in 10.0 mi SSE 4.6 mph - N/A   Clear
2:15 PM 91.9 °F 45.9 °F 20% 30.05 in 10.0 mi SSW 9.2 mph 17.3 mph N/A   Scattered Clouds
2:35 PM 90.9 °F 46.4 °F 22% 30.04 in 10.0 mi SW 8.1 mph - N/A   Clear
2:55 PM 93.7 °F 45.7 °F 19% 30.04 in 10.0 mi SSW 12.7 mph - N/A   Clear
3:15 PM 93.6 °F 45.5 °F 19% 30.02 in 7.0 mi West 15.0 mph 21.9 mph N/A   Scattered Clouds
3:35 PM 91.4 °F 45.5 °F 20% 30.02 in 10.0 mi West 11.5 mph 20.7 mph N/A   Clear
3:55 PM 90.9 °F 45.7 °F 21% 30.01 in 7.0 mi West 13.8 mph 25.3 mph N/A   Clear
4:15 PM 92.3 °F 46.6 °F 21% 30.01 in 7.0 mi WNW 15.0 mph 21.9 mph N/A   Clear
4:35 PM 90.3 °F 46.6 °F 22% 30.00 in 10.0 mi NW 15.0 mph 20.7 mph N/A   Clear
4:55 PM 90.9 °F 45.3 °F 21% 30.00 in 10.0 mi WNW 12.7 mph 18.4 mph N/A   Clear
5:15 PM 91.0 °F 44.6 °F 20% 29.99 in 7.0 mi WNW 15.0 mph - N/A   Clear
5:35 PM 90.5 °F 44.8 °F 20% 29.99 in 10.0 mi WNW 15.0 mph - N/A   Clear
5:55 PM 89.2 °F 45.3 °F 22% 29.98 in 10.0 mi NW 12.7 mph 16.1 mph N/A   Scattered Clouds
6:15 PM 88.9 °F 44.1 °F 21% 29.98 in 10.0 mi WSW 5.8 mph - N/A Rain Light Rain
6:35 PM 88.9 °F 42.8 °F 20% 29.98 in 7.0 mi West 11.5 mph - N/A   Scattered Clouds
6:55 PM 88.3 °F 43.7 °F 21% 29.98 in 10.0 mi NW 12.7 mph - N/A   Mostly Cloudy
7:15 PM 82.4 °F 49.8 °F 32% 30.00 in 10.0 mi ENE 17.3 mph 27.6 mph N/A   Overcast
7:35 PM 81.3 °F 49.5 °F 33% 30.00 in 10.0 mi ENE 12.7 mph 18.4 mph N/A Thunderstorm Mostly Cloudy
7:55 PM 78.6 °F 53.1 °F 41% 30.01 in 7.0 mi ENE 11.5 mph - N/A Thunderstorm Mostly Cloudy
8:15 PM 78.1 °F 53.1 °F 42% 30.04 in 7.0 mi ENE 8.1 mph - N/A Thunderstorm Mostly Cloudy
8:35 PM 76.8 °F 53.4 °F 44% 30.07 in 10.0 mi ESE 11.5 mph 24.2 mph N/A Thunderstorm Overcast
8:55 PM 68.0 °F 61.0 °F 78% 30.09 in 4.0 mi SE 5.8 mph - 0.03 in Rain Rain
9:15 PM 68.2 °F 60.4 °F 76% 30.13 in 7.0 mi SE 3.5 mph 19.6 mph 0.01 in Rain Light Rain
9:35 PM 67.6 °F 62.8 °F 84% 30.12 in 5.0 mi NE 8.1 mph - 0.03 in Rain Rain
9:55 PM 66.2 °F 62.2 °F 87% 30.12 in 7.0 mi North 11.5 mph - 0.05 in Rain Rain
10:15 PM 66.2 °F 61.0 °F 83% 30.12 in 7.0 mi NNE 15.0 mph - 0.01 in Rain Light Rain
10:35 PM 66.2 °F 61.3 °F 84% 30.13 in 7.0 mi NE 9.2 mph - 0.01 in Rain Light Rain
10:55 PM 66.6 °F 61.7 °F 84% 30.14 in 7.0 mi NNE 5.8 mph - 0.01 in   Overcast
11:15 PM 67.1 °F 61.2 °F 81% 30.13 in 10.0 mi ENE 5.8 mph - N/A Rain Rain
11:35 PM 65.7 °F 61.7 °F 87% 30.13 in 10.0 mi ENE 9.2 mph - N/A Rain Light Rain
11:55 PM 64.8 °F 61.7 °F 90% 30.13 in 7.0 mi NE 6.9 mph - N/A Rain Light Rain